sensor_id;sensor_type;location;lat;lon;timestamp;P1;durP1;ratioP1;P2;durP2;ratioP2
67861;SDS011;54665;51.462;6.698;2022-10-16T00:01:56;9.57;;;4.00;;
67861;SDS011;54665;51.462;6.698;2022-10-16T00:04:21;7.18;;;3.42;;
67861;SDS011;54665;51.462;6.698;2022-10-16T00:06:47;9.93;;;4.00;;
67861;SDS011;54665;51.462;6.698;2022-10-16T00:09:13;8.23;;;3.57;;
67861;SDS011;54665;51.462;6.698;2022-10-16T00:11:38;9.25;;;3.65;;
67861;SDS011;54665;51.462;6.698;2022-10-16T00:14:09;7.87;;;3.33;;
67861;SDS011;54665;51.462;6.698;2022-10-16T00:16:37;7.07;;;3.17;;
67861;SDS011;54665;51.462;6.698;2022-10-16T00:19:03;7.95;;;3.30;;
67861;SDS011;54665;51.462;6.698;2022-10-16T00:21:29;8.02;;;3.92;;
67861;SDS011;54665;51.462;6.698;2022-10-16T00:23:59;8.50;;;3.77;;
67861;SDS011;54665;51.462;6.698;2022-10-16T00:26:27;10.73;;;4.22;;
67861;SDS011;54665;51.462;6.698;2022-10-16T00:28:54;8.43;;;4.03;;
67861;SDS011;54665;51.462;6.698;2022-10-16T00:31:20;9.50;;;3.90;;
67861;SDS011;54665;51.462;6.698;2022-10-16T00:33:47;8.07;;;4.10;;
67861;SDS011;54665;51.462;6.698;2022-10-16T00:36:14;12.00;;;4.13;;
67861;SDS011;54665;51.462;6.698;2022-10-16T00:38:42;9.75;;;3.90;;
67861;SDS011;54665;51.462;6.698;2022-10-16T00:41:09;9.67;;;4.00;;
67861;SDS011;54665;51.462;6.698;2022-10-16T00:43:50;7.18;;;3.70;;
67861;SDS011;54665;51.462;6.698;2022-10-16T00:49:06;10.45;;;3.80;;
67861;SDS011;54665;51.462;6.698;2022-10-16T00:51:45;10.83;;;3.67;;
67861;SDS011;54665;51.462;6.698;2022-10-16T00:54:14;10.43;;;3.58;;
67861;SDS011;54665;51.462;6.698;2022-10-16T00:56:43;7.72;;;3.40;;
67861;SDS011;54665;51.462;6.698;2022-10-16T00:59:11;7.72;;;3.70;;
67861;SDS011;54665;51.462;6.698;2022-10-16T01:01:41;11.50;;;3.67;;
67861;SDS011;54665;51.462;6.698;2022-10-16T01:04:06;9.37;;;3.17;;
67861;SDS011;54665;51.462;6.698;2022-10-16T01:15:24;9.00;;;3.33;;
67861;SDS011;54665;51.462;6.698;2022-10-16T01:20:35;8.70;;;3.40;;
67861;SDS011;54665;51.462;6.698;2022-10-16T01:28:18;8.70;;;3.40;;
67861;SDS011;54665;51.462;6.698;2022-10-16T01:30:49;10.27;;;3.40;;
67861;SDS011;54665;51.462;6.698;2022-10-16T01:33:21;6.72;;;2.97;;
67861;SDS011;54665;51.462;6.698;2022-10-16T01:35:55;7.20;;;3.28;;
67861;SDS011;54665;51.462;6.698;2022-10-16T01:38:31;6.45;;;3.08;;
67861;SDS011;54665;51.462;6.698;2022-10-16T01:41:01;6.23;;;3.00;;
67861;SDS011;54665;51.462;6.698;2022-10-16T01:43:33;5.85;;;2.80;;
67861;SDS011;54665;51.462;6.698;2022-10-16T01:46:03;7.45;;;3.25;;
67861;SDS011;54665;51.462;6.698;2022-10-16T01:48:30;7.00;;;2.92;;
67861;SDS011;54665;51.462;6.698;2022-10-16T01:51:05;6.88;;;3.03;;
67861;SDS011;54665;51.462;6.698;2022-10-16T01:53:33;6.80;;;2.80;;
67861;SDS011;54665;51.462;6.698;2022-10-16T01:56:00;7.50;;;3.17;;
67861;SDS011;54665;51.462;6.698;2022-10-16T01:58:28;8.13;;;2.83;;
67861;SDS011;54665;51.462;6.698;2022-10-16T02:00:59;8.38;;;3.00;;
67861;SDS011;54665;51.462;6.698;2022-10-16T02:03:27;8.75;;;3.15;;
67861;SDS011;54665;51.462;6.698;2022-10-16T02:05:53;7.40;;;2.83;;
67861;SDS011;54665;51.462;6.698;2022-10-16T02:08:22;6.10;;;2.58;;
67861;SDS011;54665;51.462;6.698;2022-10-16T02:10:49;6.55;;;2.70;;
67861;SDS011;54665;51.462;6.698;2022-10-16T02:13:22;6.07;;;2.60;;
67861;SDS011;54665;51.462;6.698;2022-10-16T02:15:52;9.63;;;2.50;;
67861;SDS011;54665;51.462;6.698;2022-10-16T02:18:19;7.03;;;2.47;;
67861;SDS011;54665;51.462;6.698;2022-10-16T02:23:35;5.13;;;2.53;;
67861;SDS011;54665;51.462;6.698;2022-10-16T02:26:09;5.40;;;2.40;;
67861;SDS011;54665;51.462;6.698;2022-10-16T02:28:40;5.82;;;2.47;;
67861;SDS011;54665;51.462;6.698;2022-10-16T02:31:11;5.15;;;2.35;;
67861;SDS011;54665;51.462;6.698;2022-10-16T02:33:41;5.97;;;2.60;;
67861;SDS011;54665;51.462;6.698;2022-10-16T02:36:09;5.93;;;2.15;;
67861;SDS011;54665;51.462;6.698;2022-10-16T02:38:35;4.43;;;2.10;;
67861;SDS011;54665;51.462;6.698;2022-10-16T02:41:01;5.60;;;2.47;;
67861;SDS011;54665;51.462;6.698;2022-10-16T02:43:28;5.90;;;2.30;;
67861;SDS011;54665;51.462;6.698;2022-10-16T02:45:53;5.70;;;2.40;;
67861;SDS011;54665;51.462;6.698;2022-10-16T02:48:19;5.47;;;2.40;;
67861;SDS011;54665;51.462;6.698;2022-10-16T02:50:44;6.80;;;2.80;;
67861;SDS011;54665;51.462;6.698;2022-10-16T02:53:09;7.37;;;2.63;;
67861;SDS011;54665;51.462;6.698;2022-10-16T02:55:35;6.53;;;3.00;;
67861;SDS011;54665;51.462;6.698;2022-10-16T02:58:00;9.77;;;3.17;;
67861;SDS011;54665;51.462;6.698;2022-10-16T03:00:26;11.00;;;4.30;;
67861;SDS011;54665;51.462;6.698;2022-10-16T03:02:51;9.17;;;3.57;;
67861;SDS011;54665;51.462;6.698;2022-10-16T03:05:17;7.03;;;3.37;;
67861;SDS011;54665;51.462;6.698;2022-10-16T03:07:42;7.03;;;3.58;;
67861;SDS011;54665;51.462;6.698;2022-10-16T03:10:08;8.03;;;3.50;;
67861;SDS011;54665;51.462;6.698;2022-10-16T03:12:33;8.60;;;3.55;;
67861;SDS011;54665;51.462;6.698;2022-10-16T03:14:59;8.60;;;3.33;;
67861;SDS011;54665;51.462;6.698;2022-10-16T03:17:24;5.90;;;3.10;;
67861;SDS011;54665;51.462;6.698;2022-10-16T03:19:50;7.38;;;3.08;;
67861;SDS011;54665;51.462;6.698;2022-10-16T03:22:16;7.30;;;3.03;;
67861;SDS011;54665;51.462;6.698;2022-10-16T03:24:41;7.63;;;3.03;;
67861;SDS011;54665;51.462;6.698;2022-10-16T03:27:06;6.27;;;2.77;;
67861;SDS011;54665;51.462;6.698;2022-10-16T03:29:33;5.30;;;2.83;;
67861;SDS011;54665;51.462;6.698;2022-10-16T03:31:59;6.43;;;2.60;;
67861;SDS011;54665;51.462;6.698;2022-10-16T03:34:24;6.80;;;2.10;;
67861;SDS011;54665;51.462;6.698;2022-10-16T03:36:50;6.35;;;2.50;;
67861;SDS011;54665;51.462;6.698;2022-10-16T03:39:16;4.83;;;2.20;;
67861;SDS011;54665;51.462;6.698;2022-10-16T03:41:41;6.03;;;2.10;;
67861;SDS011;54665;51.462;6.698;2022-10-16T03:44:07;5.25;;;2.10;;
67861;SDS011;54665;51.462;6.698;2022-10-16T03:46:32;4.57;;;1.83;;
67861;SDS011;54665;51.462;6.698;2022-10-16T03:48:57;5.00;;;1.80;;
67861;SDS011;54665;51.462;6.698;2022-10-16T03:51:23;6.83;;;1.97;;
67861;SDS011;54665;51.462;6.698;2022-10-16T03:53:48;4.13;;;2.07;;
67861;SDS011;54665;51.462;6.698;2022-10-16T03:56:14;3.37;;;1.70;;
67861;SDS011;54665;51.462;6.698;2022-10-16T03:58:39;3.67;;;1.80;;
67861;SDS011;54665;51.462;6.698;2022-10-16T04:01:05;3.67;;;2.00;;
67861;SDS011;54665;51.462;6.698;2022-10-16T04:03:30;4.03;;;1.93;;
67861;SDS011;54665;51.462;6.698;2022-10-16T04:05:56;3.73;;;1.77;;
67861;SDS011;54665;51.462;6.698;2022-10-16T04:08:21;2.90;;;1.73;;
67861;SDS011;54665;51.462;6.698;2022-10-16T04:10:47;3.65;;;1.67;;
67861;SDS011;54665;51.462;6.698;2022-10-16T04:13:12;3.13;;;1.70;;
67861;SDS011;54665;51.462;6.698;2022-10-16T04:15:38;3.70;;;1.60;;
67861;SDS011;54665;51.462;6.698;2022-10-16T04:18:04;4.03;;;1.67;;
67861;SDS011;54665;51.462;6.698;2022-10-16T04:20:30;4.83;;;1.60;;
67861;SDS011;54665;51.462;6.698;2022-10-16T04:22:55;3.03;;;1.40;;
67861;SDS011;54665;51.462;6.698;2022-10-16T04:25:21;2.60;;;1.30;;
67861;SDS011;54665;51.462;6.698;2022-10-16T04:27:46;3.30;;;1.60;;
67861;SDS011;54665;51.462;6.698;2022-10-16T04:30:12;3.37;;;1.33;;
67861;SDS011;54665;51.462;6.698;2022-10-16T04:32:38;3.23;;;1.40;;
67861;SDS011;54665;51.462;6.698;2022-10-16T04:35:03;4.10;;;1.55;;
67861;SDS011;54665;51.462;6.698;2022-10-16T04:37:29;3.00;;;1.40;;
67861;SDS011;54665;51.462;6.698;2022-10-16T04:39:54;2.77;;;1.40;;
67861;SDS011;54665;51.462;6.698;2022-10-16T04:42:20;4.40;;;1.45;;
67861;SDS011;54665;51.462;6.698;2022-10-16T04:44:45;4.30;;;1.70;;
67861;SDS011;54665;51.462;6.698;2022-10-16T04:47:11;4.45;;;1.67;;
67861;SDS011;54665;51.462;6.698;2022-10-16T04:49:37;3.37;;;1.50;;
67861;SDS011;54665;51.462;6.698;2022-10-16T04:52:03;2.95;;;1.42;;
67861;SDS011;54665;51.462;6.698;2022-10-16T04:54:28;4.07;;;1.70;;
67861;SDS011;54665;51.462;6.698;2022-10-16T04:56:54;4.85;;;2.10;;
67861;SDS011;54665;51.462;6.698;2022-10-16T04:59:20;3.83;;;1.83;;
67861;SDS011;54665;51.462;6.698;2022-10-16T05:01:47;4.22;;;1.70;;
67861;SDS011;54665;51.462;6.698;2022-10-16T05:04:12;3.40;;;1.90;;
67861;SDS011;54665;51.462;6.698;2022-10-16T05:06:39;3.03;;;1.73;;
67861;SDS011;54665;51.462;6.698;2022-10-16T05:09:05;4.38;;;1.73;;
67861;SDS011;54665;51.462;6.698;2022-10-16T05:11:31;4.83;;;1.70;;
67861;SDS011;54665;51.462;6.698;2022-10-16T05:13:57;2.85;;;1.48;;
67861;SDS011;54665;51.462;6.698;2022-10-16T05:16:22;3.63;;;1.77;;
67861;SDS011;54665;51.462;6.698;2022-10-16T05:18:48;4.67;;;1.67;;
67861;SDS011;54665;51.462;6.698;2022-10-16T05:21:13;4.87;;;1.67;;
67861;SDS011;54665;51.462;6.698;2022-10-16T05:23:39;3.40;;;1.80;;
67861;SDS011;54665;51.462;6.698;2022-10-16T05:26:04;4.00;;;1.80;;
67861;SDS011;54665;51.462;6.698;2022-10-16T05:28:31;4.90;;;1.87;;
67861;SDS011;54665;51.462;6.698;2022-10-16T05:30:57;5.13;;;1.90;;
67861;SDS011;54665;51.462;6.698;2022-10-16T05:33:24;3.43;;;1.70;;
67861;SDS011;54665;51.462;6.698;2022-10-16T05:35:50;4.65;;;1.75;;
67861;SDS011;54665;51.462;6.698;2022-10-16T05:38:16;3.42;;;1.60;;
67861;SDS011;54665;51.462;6.698;2022-10-16T05:40:43;5.53;;;1.88;;
67861;SDS011;54665;51.462;6.698;2022-10-16T05:43:15;5.15;;;1.95;;
67861;SDS011;54665;51.462;6.698;2022-10-16T05:45:40;3.50;;;1.80;;
67861;SDS011;54665;51.462;6.698;2022-10-16T05:48:05;4.33;;;2.10;;
67861;SDS011;54665;51.462;6.698;2022-10-16T05:50:31;4.72;;;1.95;;
67861;SDS011;54665;51.462;6.698;2022-10-16T05:52:57;4.23;;;1.80;;
67861;SDS011;54665;51.462;6.698;2022-10-16T05:55:22;3.97;;;2.10;;
67861;SDS011;54665;51.462;6.698;2022-10-16T05:57:47;4.77;;;2.20;;
67861;SDS011;54665;51.462;6.698;2022-10-16T06:00:13;5.00;;;2.27;;
67861;SDS011;54665;51.462;6.698;2022-10-16T06:02:38;3.97;;;2.20;;
67861;SDS011;54665;51.462;6.698;2022-10-16T06:05:04;5.53;;;2.30;;
67861;SDS011;54665;51.462;6.698;2022-10-16T06:07:33;4.43;;;2.50;;
67861;SDS011;54665;51.462;6.698;2022-10-16T06:10:01;4.35;;;2.40;;
67861;SDS011;54665;51.462;6.698;2022-10-16T06:12:26;5.77;;;2.17;;
67861;SDS011;54665;51.462;6.698;2022-10-16T06:14:52;6.47;;;2.63;;
67861;SDS011;54665;51.462;6.698;2022-10-16T06:17:17;6.37;;;2.77;;
67861;SDS011;54665;51.462;6.698;2022-10-16T06:19:43;5.77;;;2.60;;
67861;SDS011;54665;51.462;6.698;2022-10-16T06:22:08;7.30;;;2.80;;
67861;SDS011;54665;51.462;6.698;2022-10-16T06:24:33;7.22;;;2.55;;
67861;SDS011;54665;51.462;6.698;2022-10-16T06:26:59;7.57;;;2.70;;
67861;SDS011;54665;51.462;6.698;2022-10-16T06:29:24;9.10;;;2.43;;
67861;SDS011;54665;51.462;6.698;2022-10-16T06:31:49;8.10;;;2.63;;
67861;SDS011;54665;51.462;6.698;2022-10-16T06:34:15;7.43;;;2.57;;
67861;SDS011;54665;51.462;6.698;2022-10-16T06:36:40;6.13;;;2.57;;
67861;SDS011;54665;51.462;6.698;2022-10-16T06:39:06;6.97;;;2.57;;
67861;SDS011;54665;51.462;6.698;2022-10-16T06:41:32;4.65;;;2.42;;
67861;SDS011;54665;51.462;6.698;2022-10-16T06:44:07;5.37;;;2.80;;
67861;SDS011;54665;51.462;6.698;2022-10-16T06:46:33;5.28;;;2.60;;
67861;SDS011;54665;51.462;6.698;2022-10-16T06:48:58;8.83;;;2.90;;
67861;SDS011;54665;51.462;6.698;2022-10-16T06:51:24;6.28;;;2.90;;
67861;SDS011;54665;51.462;6.698;2022-10-16T06:53:54;6.75;;;2.63;;
67861;SDS011;54665;51.462;6.698;2022-10-16T06:56:22;9.80;;;3.50;;
67861;SDS011;54665;51.462;6.698;2022-10-16T06:58:50;8.25;;;3.30;;
67861;SDS011;54665;51.462;6.698;2022-10-16T07:01:16;8.93;;;4.28;;
67861;SDS011;54665;51.462;6.698;2022-10-16T07:03:44;6.40;;;3.13;;
67861;SDS011;54665;51.462;6.698;2022-10-16T07:06:11;7.50;;;2.78;;
67861;SDS011;54665;51.462;6.698;2022-10-16T07:08:39;5.80;;;3.00;;
67861;SDS011;54665;51.462;6.698;2022-10-16T07:11:06;6.68;;;3.20;;
67861;SDS011;54665;51.462;6.698;2022-10-16T07:13:33;6.82;;;2.85;;
67861;SDS011;54665;51.462;6.698;2022-10-16T07:18:32;6.15;;;2.70;;
67861;SDS011;54665;51.462;6.698;2022-10-16T07:23:29;6.75;;;2.75;;
67861;SDS011;54665;51.462;6.698;2022-10-16T07:25:55;16.43;;;7.03;;
67861;SDS011;54665;51.462;6.698;2022-10-16T07:28:21;5.82;;;3.05;;
67861;SDS011;54665;51.462;6.698;2022-10-16T07:30:47;6.63;;;3.73;;
67861;SDS011;54665;51.462;6.698;2022-10-16T07:33:12;5.88;;;3.10;;
67861;SDS011;54665;51.462;6.698;2022-10-16T07:35:38;5.17;;;2.60;;
67861;SDS011;54665;51.462;6.698;2022-10-16T07:38:03;4.10;;;2.40;;
67861;SDS011;54665;51.462;6.698;2022-10-16T07:40:28;4.20;;;2.00;;
67861;SDS011;54665;51.462;6.698;2022-10-16T07:42:54;3.23;;;1.80;;
67861;SDS011;54665;51.462;6.698;2022-10-16T07:45:19;4.47;;;1.80;;
67861;SDS011;54665;51.462;6.698;2022-10-16T07:47:44;3.35;;;1.88;;
67861;SDS011;54665;51.462;6.698;2022-10-16T07:50:10;3.80;;;1.73;;
67861;SDS011;54665;51.462;6.698;2022-10-16T07:52:35;4.13;;;2.27;;
67861;SDS011;54665;51.462;6.698;2022-10-16T07:55:00;4.47;;;2.67;;
67861;SDS011;54665;51.462;6.698;2022-10-16T07:57:26;5.53;;;2.80;;
67861;SDS011;54665;51.462;6.698;2022-10-16T07:59:51;4.20;;;1.50;;
67861;SDS011;54665;51.462;6.698;2022-10-16T08:02:16;5.03;;;1.52;;
67861;SDS011;54665;51.462;6.698;2022-10-16T08:04:42;3.93;;;1.90;;
67861;SDS011;54665;51.462;6.698;2022-10-16T08:07:08;2.80;;;1.50;;
67861;SDS011;54665;51.462;6.698;2022-10-16T08:09:34;2.10;;;1.40;;
67861;SDS011;54665;51.462;6.698;2022-10-16T08:11:59;3.97;;;1.60;;
67861;SDS011;54665;51.462;6.698;2022-10-16T08:14:24;2.80;;;1.33;;
67861;SDS011;54665;51.462;6.698;2022-10-16T08:16:50;4.30;;;1.50;;
67861;SDS011;54665;51.462;6.698;2022-10-16T08:19:15;3.20;;;1.50;;
67861;SDS011;54665;51.462;6.698;2022-10-16T08:21:40;3.33;;;1.77;;
67861;SDS011;54665;51.462;6.698;2022-10-16T08:24:06;4.63;;;1.50;;
67861;SDS011;54665;51.462;6.698;2022-10-16T08:26:31;3.70;;;1.50;;
67861;SDS011;54665;51.462;6.698;2022-10-16T08:28:56;1.90;;;1.23;;
67861;SDS011;54665;51.462;6.698;2022-10-16T08:31:22;4.53;;;1.73;;
67861;SDS011;54665;51.462;6.698;2022-10-16T08:33:48;4.53;;;1.65;;
67861;SDS011;54665;51.462;6.698;2022-10-16T08:36:14;2.25;;;1.38;;
67861;SDS011;54665;51.462;6.698;2022-10-16T08:38:40;3.13;;;1.40;;
67861;SDS011;54665;51.462;6.698;2022-10-16T08:41:28;2.30;;;1.47;;
67861;SDS011;54665;51.462;6.698;2022-10-16T08:44:15;3.60;;;1.40;;
67861;SDS011;54665;51.462;6.698;2022-10-16T08:49:35;2.65;;;1.13;;
67861;SDS011;54665;51.462;6.698;2022-10-16T08:52:01;3.05;;;1.30;;
67861;SDS011;54665;51.462;6.698;2022-10-16T08:54:37;2.27;;;1.20;;
67861;SDS011;54665;51.462;6.698;2022-10-16T08:57:11;4.00;;;1.30;;
67861;SDS011;54665;51.462;6.698;2022-10-16T08:59:45;3.10;;;1.30;;
67861;SDS011;54665;51.462;6.698;2022-10-16T09:08:16;3.45;;;1.30;;
67861;SDS011;54665;51.462;6.698;2022-10-16T09:10:48;3.05;;;1.20;;
67861;SDS011;54665;51.462;6.698;2022-10-16T09:16:01;3.28;;;1.02;;
67861;SDS011;54665;51.462;6.698;2022-10-16T09:18:48;3.33;;;1.08;;
67861;SDS011;54665;51.462;6.698;2022-10-16T09:21:38;4.15;;;1.35;;
67861;SDS011;54665;51.462;6.698;2022-10-16T09:24:09;3.72;;;1.17;;
67861;SDS011;54665;51.462;6.698;2022-10-16T09:26:40;4.53;;;1.37;;
67861;SDS011;54665;51.462;6.698;2022-10-16T09:29:06;3.53;;;1.10;;
67861;SDS011;54665;51.462;6.698;2022-10-16T09:31:31;5.03;;;1.10;;
67861;SDS011;54665;51.462;6.698;2022-10-16T09:33:58;3.53;;;1.20;;
67861;SDS011;54665;51.462;6.698;2022-10-16T09:36:25;2.85;;;0.93;;
67861;SDS011;54665;51.462;6.698;2022-10-16T09:39:06;3.13;;;1.10;;
67861;SDS011;54665;51.462;6.698;2022-10-16T09:41:34;4.30;;;0.90;;
67861;SDS011;54665;51.462;6.698;2022-10-16T09:44:02;2.25;;;0.90;;
67861;SDS011;54665;51.462;6.698;2022-10-16T09:46:31;1.90;;;1.00;;
67861;SDS011;54665;51.462;6.698;2022-10-16T09:49:49;2.70;;;1.00;;
67861;SDS011;54665;51.462;6.698;2022-10-16T09:51:50;1.80;;;0.90;;
67861;SDS011;54665;51.462;6.698;2022-10-16T09:54:27;3.30;;;1.10;;
67861;SDS011;54665;51.462;6.698;2022-10-16T09:56:52;3.23;;;1.00;;
67861;SDS011;54665;51.462;6.698;2022-10-16T09:59:28;4.00;;;1.00;;
67861;SDS011;54665;51.462;6.698;2022-10-16T10:01:56;2.83;;;0.98;;
67861;SDS011;54665;51.462;6.698;2022-10-16T10:04:24;2.22;;;0.80;;
67861;SDS011;54665;51.462;6.698;2022-10-16T10:06:57;2.25;;;0.90;;
67861;SDS011;54665;51.462;6.698;2022-10-16T10:09:23;3.13;;;1.00;;
67861;SDS011;54665;51.462;6.698;2022-10-16T10:11:57;4.33;;;1.10;;
67861;SDS011;54665;51.462;6.698;2022-10-16T10:14:27;1.83;;;0.90;;
67861;SDS011;54665;51.462;6.698;2022-10-16T10:19:42;2.35;;;0.68;;
67861;SDS011;54665;51.462;6.698;2022-10-16T10:22:16;2.08;;;0.80;;
67861;SDS011;54665;51.462;6.698;2022-10-16T10:24:53;1.97;;;0.70;;
67861;SDS011;54665;51.462;6.698;2022-10-16T10:27:20;3.53;;;0.80;;
67861;SDS011;54665;51.462;6.698;2022-10-16T10:29:55;2.95;;;1.00;;
67861;SDS011;54665;51.462;6.698;2022-10-16T10:32:31;1.98;;;0.65;;
67861;SDS011;54665;51.462;6.698;2022-10-16T10:40:52;1.65;;;0.70;;
67861;SDS011;54665;51.462;6.698;2022-10-16T10:46:14;5.47;;;0.90;;
67861;SDS011;54665;51.462;6.698;2022-10-16T10:48:54;2.38;;;0.95;;
67861;SDS011;54665;51.462;6.698;2022-10-16T10:51:36;4.07;;;0.87;;
67861;SDS011;54665;51.462;6.698;2022-10-16T10:54:20;2.95;;;0.80;;
67861;SDS011;54665;51.462;6.698;2022-10-16T10:57:17;1.83;;;0.73;;
67861;SDS011;54665;51.462;6.698;2022-10-16T11:02:38;2.95;;;0.70;;
67861;SDS011;54665;51.462;6.698;2022-10-16T11:08:13;1.77;;;0.80;;
67861;SDS011;54665;51.462;6.698;2022-10-16T11:10:52;2.92;;;0.93;;
67861;SDS011;54665;51.462;6.698;2022-10-16T11:13:30;1.73;;;0.80;;
67861;SDS011;54665;51.462;6.698;2022-10-16T11:15:59;2.70;;;0.70;;
67861;SDS011;54665;51.462;6.698;2022-10-16T11:18:39;3.03;;;0.80;;
67861;SDS011;54665;51.462;6.698;2022-10-16T11:21:12;2.50;;;0.80;;
67861;SDS011;54665;51.462;6.698;2022-10-16T11:23:42;4.63;;;0.82;;
67861;SDS011;54665;51.462;6.698;2022-10-16T11:26:28;2.47;;;0.95;;
67861;SDS011;54665;51.462;6.698;2022-10-16T11:29:03;4.88;;;1.10;;
67861;SDS011;54665;51.462;6.698;2022-10-16T11:31:41;2.43;;;0.73;;
67861;SDS011;54665;51.462;6.698;2022-10-16T11:44:46;2.77;;;0.87;;
67861;SDS011;54665;51.462;6.698;2022-10-16T11:47:25;3.30;;;0.85;;
67861;SDS011;54665;51.462;6.698;2022-10-16T11:50:01;3.42;;;0.80;;
67861;SDS011;54665;51.462;6.698;2022-10-16T11:55:49;2.70;;;0.82;;
67861;SDS011;54665;51.462;6.698;2022-10-16T11:58:34;1.73;;;0.83;;
67861;SDS011;54665;51.462;6.698;2022-10-16T12:01:29;1.52;;;0.80;;
67861;SDS011;54665;51.462;6.698;2022-10-16T12:06:46;1.60;;;0.80;;
67861;SDS011;54665;51.462;6.698;2022-10-16T12:11:49;1.30;;;0.70;;
67861;SDS011;54665;51.462;6.698;2022-10-16T12:19:26;3.17;;;0.80;;
67861;SDS011;54665;51.462;6.698;2022-10-16T12:21:55;2.95;;;1.00;;
67861;SDS011;54665;51.462;6.698;2022-10-16T12:27:02;2.17;;;0.90;;
67861;SDS011;54665;51.462;6.698;2022-10-16T12:29:34;2.10;;;0.63;;
67861;SDS011;54665;51.462;6.698;2022-10-16T12:32:04;2.53;;;0.65;;
67861;SDS011;54665;51.462;6.698;2022-10-16T12:34:45;2.50;;;0.90;;
67861;SDS011;54665;51.462;6.698;2022-10-16T12:39:53;3.13;;;0.80;;
67861;SDS011;54665;51.462;6.698;2022-10-16T12:44:53;2.10;;;0.73;;
67861;SDS011;54665;51.462;6.698;2022-10-16T12:47:20;2.75;;;0.80;;
67861;SDS011;54665;51.462;6.698;2022-10-16T12:50:29;3.88;;;0.90;;
67861;SDS011;54665;51.462;6.698;2022-10-16T12:52:59;2.63;;;0.80;;
67861;SDS011;54665;51.462;6.698;2022-10-16T12:55:26;1.53;;;0.73;;
67861;SDS011;54665;51.462;6.698;2022-10-16T12:58:05;2.30;;;0.70;;
67861;SDS011;54665;51.462;6.698;2022-10-16T13:17:30;2.17;;;0.68;;
67861;SDS011;54665;51.462;6.698;2022-10-16T13:20:18;2.60;;;0.80;;
67861;SDS011;54665;51.462;6.698;2022-10-16T13:23:09;2.37;;;0.80;;
67861;SDS011;54665;51.462;6.698;2022-10-16T13:28:30;1.67;;;0.80;;
67861;SDS011;54665;51.462;6.698;2022-10-16T13:30:58;1.85;;;0.60;;
67861;SDS011;54665;51.462;6.698;2022-10-16T13:33:33;1.38;;;0.70;;
67861;SDS011;54665;51.462;6.698;2022-10-16T13:36:01;2.33;;;0.80;;
67861;SDS011;54665;51.462;6.698;2022-10-16T13:38:29;2.15;;;0.70;;
67861;SDS011;54665;51.462;6.698;2022-10-16T13:41:04;2.67;;;0.70;;
67861;SDS011;54665;51.462;6.698;2022-10-16T13:43:37;2.95;;;0.60;;
67861;SDS011;54665;51.462;6.698;2022-10-16T13:48:39;3.20;;;0.80;;
67861;SDS011;54665;51.462;6.698;2022-10-16T13:51:05;5.18;;;1.00;;
67861;SDS011;54665;51.462;6.698;2022-10-16T13:53:37;2.92;;;0.70;;
67861;SDS011;54665;51.462;6.698;2022-10-16T13:56:21;3.40;;;0.77;;
67861;SDS011;54665;51.462;6.698;2022-10-16T13:59:03;2.60;;;0.88;;
67861;SDS011;54665;51.462;6.698;2022-10-16T14:01:31;1.85;;;0.80;;
67861;SDS011;54665;51.462;6.698;2022-10-16T14:04:02;3.22;;;1.10;;
67861;SDS011;54665;51.462;6.698;2022-10-16T14:06:30;4.82;;;1.20;;
67861;SDS011;54665;51.462;6.698;2022-10-16T14:11:27;2.25;;;0.85;;
67861;SDS011;54665;51.462;6.698;2022-10-16T14:13:53;3.22;;;1.10;;
67861;SDS011;54665;51.462;6.698;2022-10-16T14:16:20;4.03;;;0.90;;
67861;SDS011;54665;51.462;6.698;2022-10-16T14:19:06;1.97;;;1.00;;
67861;SDS011;54665;51.462;6.698;2022-10-16T14:21:40;3.08;;;0.80;;
67861;SDS011;54665;51.462;6.698;2022-10-16T14:26:51;2.85;;;1.00;;
67861;SDS011;54665;51.462;6.698;2022-10-16T14:29:20;2.95;;;1.00;;
67861;SDS011;54665;51.462;6.698;2022-10-16T14:34:32;3.83;;;1.10;;
67861;SDS011;54665;51.462;6.698;2022-10-16T14:37:00;1.73;;;0.80;;
67861;SDS011;54665;51.462;6.698;2022-10-16T14:39:32;2.55;;;0.80;;
67861;SDS011;54665;51.462;6.698;2022-10-16T14:41:58;2.25;;;0.85;;
67861;SDS011;54665;51.462;6.698;2022-10-16T14:44:28;2.00;;;0.97;;
67861;SDS011;54665;51.462;6.698;2022-10-16T14:46:57;2.25;;;0.90;;
67861;SDS011;54665;51.462;6.698;2022-10-16T14:49:24;3.75;;;0.90;;
67861;SDS011;54665;51.462;6.698;2022-10-16T14:51:50;3.38;;;1.08;;
67861;SDS011;54665;51.462;6.698;2022-10-16T14:54:17;4.20;;;1.00;;
67861;SDS011;54665;51.462;6.698;2022-10-16T14:56:56;8.53;;;1.20;;
67861;SDS011;54665;51.462;6.698;2022-10-16T15:04:46;2.58;;;0.80;;
67861;SDS011;54665;51.462;6.698;2022-10-16T15:07:12;4.27;;;0.90;;
67861;SDS011;54665;51.462;6.698;2022-10-16T15:09:37;3.45;;;0.95;;
67861;SDS011;54665;51.462;6.698;2022-10-16T15:12:03;2.10;;;1.00;;
67861;SDS011;54665;51.462;6.698;2022-10-16T15:14:28;2.90;;;1.10;;
67861;SDS011;54665;51.462;6.698;2022-10-16T15:16:53;2.97;;;1.00;;
67861;SDS011;54665;51.462;6.698;2022-10-16T15:19:19;2.15;;;0.90;;
67861;SDS011;54665;51.462;6.698;2022-10-16T15:21:44;11.57;;;3.20;;
67861;SDS011;54665;51.462;6.698;2022-10-16T15:24:11;2.67;;;1.20;;
67861;SDS011;54665;51.462;6.698;2022-10-16T15:26:38;2.10;;;1.00;;
67861;SDS011;54665;51.462;6.698;2022-10-16T15:29:03;2.50;;;1.00;;
67861;SDS011;54665;51.462;6.698;2022-10-16T15:31:30;3.92;;;0.95;;
67861;SDS011;54665;51.462;6.698;2022-10-16T15:33:55;10.57;;;3.37;;
67861;SDS011;54665;51.462;6.698;2022-10-16T15:36:27;3.85;;;1.33;;
67861;SDS011;54665;51.462;6.698;2022-10-16T15:38:55;4.60;;;0.90;;
67861;SDS011;54665;51.462;6.698;2022-10-16T15:41:21;3.15;;;0.90;;
67861;SDS011;54665;51.462;6.698;2022-10-16T15:43:47;3.88;;;1.10;;
67861;SDS011;54665;51.462;6.698;2022-10-16T15:46:14;5.00;;;0.90;;
67861;SDS011;54665;51.462;6.698;2022-10-16T15:48:41;3.35;;;1.00;;
67861;SDS011;54665;51.462;6.698;2022-10-16T15:51:08;3.55;;;1.00;;
67861;SDS011;54665;51.462;6.698;2022-10-16T15:53:34;3.50;;;1.00;;
67861;SDS011;54665;51.462;6.698;2022-10-16T15:56:03;4.07;;;1.00;;
67861;SDS011;54665;51.462;6.698;2022-10-16T15:58:29;5.23;;;1.00;;
67861;SDS011;54665;51.462;6.698;2022-10-16T16:00:58;2.55;;;0.98;;
67861;SDS011;54665;51.462;6.698;2022-10-16T16:03:28;4.40;;;1.05;;
67861;SDS011;54665;51.462;6.698;2022-10-16T16:05:54;2.70;;;1.00;;
67861;SDS011;54665;51.462;6.698;2022-10-16T16:08:20;3.27;;;0.80;;
67861;SDS011;54665;51.462;6.698;2022-10-16T16:10:45;3.27;;;1.03;;
67861;SDS011;54665;51.462;6.698;2022-10-16T16:13:22;2.33;;;1.05;;
67861;SDS011;54665;51.462;6.698;2022-10-16T16:15:47;3.37;;;1.10;;
67861;SDS011;54665;51.462;6.698;2022-10-16T16:18:13;3.53;;;1.00;;
67861;SDS011;54665;51.462;6.698;2022-10-16T16:20:38;2.63;;;0.97;;
67861;SDS011;54665;51.462;6.698;2022-10-16T16:23:03;2.73;;;1.10;;
67861;SDS011;54665;51.462;6.698;2022-10-16T16:25:29;3.07;;;0.90;;
67861;SDS011;54665;51.462;6.698;2022-10-16T16:27:54;4.13;;;1.10;;
67861;SDS011;54665;51.462;6.698;2022-10-16T16:30:19;2.37;;;1.07;;
67861;SDS011;54665;51.462;6.698;2022-10-16T16:32:45;3.13;;;1.00;;
67861;SDS011;54665;51.462;6.698;2022-10-16T16:35:11;2.17;;;1.00;;
67861;SDS011;54665;51.462;6.698;2022-10-16T16:37:36;4.30;;;1.23;;
67861;SDS011;54665;51.462;6.698;2022-10-16T16:40:01;4.80;;;1.10;;
67861;SDS011;54665;51.462;6.698;2022-10-16T16:42:27;3.63;;;0.93;;
67861;SDS011;54665;51.462;6.698;2022-10-16T16:44:53;4.20;;;1.08;;
67861;SDS011;54665;51.462;6.698;2022-10-16T16:47:18;3.33;;;1.00;;
67861;SDS011;54665;51.462;6.698;2022-10-16T16:49:44;5.20;;;1.10;;
67861;SDS011;54665;51.462;6.698;2022-10-16T16:52:11;2.58;;;1.05;;
67861;SDS011;54665;51.462;6.698;2022-10-16T16:54:37;5.07;;;1.20;;
67861;SDS011;54665;51.462;6.698;2022-10-16T16:57:02;3.22;;;1.30;;
67861;SDS011;54665;51.462;6.698;2022-10-16T16:59:29;3.73;;;1.30;;
67861;SDS011;54665;51.462;6.698;2022-10-16T17:01:57;4.50;;;1.20;;